sensor_id;sensor_type;location;lat;lon;timestamp;temperature;humidity
56538;DHT22;42435;53.292;6.000;2023-11-22T00:01:06;6.40;84.80
56538;DHT22;42435;53.292;6.000;2023-11-22T00:03:32;6.40;84.70
56538;DHT22;42435;53.292;6.000;2023-11-22T00:05:58;6.40;84.60
56538;DHT22;42435;53.292;6.000;2023-11-22T00:08:27;6.40;84.60
56538;DHT22;42435;53.292;6.000;2023-11-22T00:10:52;6.40;84.60
56538;DHT22;42435;53.292;6.000;2023-11-22T00:13:19;6.40;84.50
56538;DHT22;42435;53.292;6.000;2023-11-22T00:15:45;6.30;84.50
56538;DHT22;42435;53.292;6.000;2023-11-22T00:18:11;6.30;84.50
56538;DHT22;42435;53.292;6.000;2023-11-22T00:20:36;6.20;84.40
56538;DHT22;42435;53.292;6.000;2023-11-22T00:23:02;6.20;84.40
56538;DHT22;42435;53.292;6.000;2023-11-22T00:25:29;6.20;84.40
56538;DHT22;42435;53.292;6.000;2023-11-22T00:27:54;6.20;84.40
56538;DHT22;42435;53.292;6.000;2023-11-22T00:30:20;6.20;84.40
56538;DHT22;42435;53.292;6.000;2023-11-22T00:32:46;6.10;84.30
56538;DHT22;42435;53.292;6.000;2023-11-22T00:35:12;6.10;84.40
56538;DHT22;42435;53.292;6.000;2023-11-22T00:37:37;6.00;84.30
56538;DHT22;42435;53.292;6.000;2023-11-22T00:40:03;6.00;84.40
56538;DHT22;42435;53.292;6.000;2023-11-22T00:42:40;6.00;84.50
56538;DHT22;42435;53.292;6.000;2023-11-22T00:45:08;6.00;84.60
56538;DHT22;42435;53.292;6.000;2023-11-22T00:47:35;6.00;84.60
56538;DHT22;42435;53.292;6.000;2023-11-22T00:50:01;6.00;84.60
56538;DHT22;42435;53.292;6.000;2023-11-22T00:52:29;6.00;84.70
56538;DHT22;42435;53.292;6.000;2023-11-22T00:54:54;6.10;84.70
56538;DHT22;42435;53.292;6.000;2023-11-22T00:57:20;6.10;84.70
56538;DHT22;42435;53.292;6.000;2023-11-22T00:59:45;6.10;84.60
56538;DHT22;42435;53.292;6.000;2023-11-22T01:02:11;6.10;84.60
56538;DHT22;42435;53.292;6.000;2023-11-22T01:04:37;6.10;84.60
56538;DHT22;42435;53.292;6.000;2023-11-22T01:07:03;6.10;84.60
56538;DHT22;42435;53.292;6.000;2023-11-22T01:09:33;6.10;84.70
56538;DHT22;42435;53.292;6.000;2023-11-22T01:11:59;6.10;84.70
56538;DHT22;42435;53.292;6.000;2023-11-22T01:14:26;6.10;84.70
56538;DHT22;42435;53.292;6.000;2023-11-22T01:16:52;6.20;84.70
56538;DHT22;42435;53.292;6.000;2023-11-22T01:19:18;6.20;84.80
56538;DHT22;42435;53.292;6.000;2023-11-22T01:21:43;6.20;84.80
56538;DHT22;42435;53.292;6.000;2023-11-22T01:24:09;6.20;84.70
56538;DHT22;42435;53.292;6.000;2023-11-22T01:26:35;6.20;84.70
56538;DHT22;42435;53.292;6.000;2023-11-22T01:29:01;6.20;84.70
56538;DHT22;42435;53.292;6.000;2023-11-22T01:31:28;6.20;84.70
56538;DHT22;42435;53.292;6.000;2023-11-22T01:33:54;6.20;84.60
56538;DHT22;42435;53.292;6.000;2023-11-22T01:36:20;6.20;84.60
56538;DHT22;42435;53.292;6.000;2023-11-22T01:38:46;6.20;84.50
56538;DHT22;42435;53.292;6.000;2023-11-22T01:41:12;6.20;84.50
56538;DHT22;42435;53.292;6.000;2023-11-22T01:43:39;6.20;84.50
56538;DHT22;42435;53.292;6.000;2023-11-22T01:46:08;6.20;84.50
56538;DHT22;42435;53.292;6.000;2023-11-22T01:48:34;6.20;84.60
56538;DHT22;42435;53.292;6.000;2023-11-22T01:51:02;6.20;84.60
56538;DHT22;42435;53.292;6.000;2023-11-22T01:53:28;6.20;84.60
56538;DHT22;42435;53.292;6.000;2023-11-22T01:55:55;6.20;84.70
56538;DHT22;42435;53.292;6.000;2023-11-22T01:58:22;6.20;84.70
56538;DHT22;42435;53.292;6.000;2023-11-22T02:00:52;6.20;84.70
56538;DHT22;42435;53.292;6.000;2023-11-22T02:03:18;6.30;84.60
56538;DHT22;42435;53.292;6.000;2023-11-22T02:05:44;6.30;84.50
56538;DHT22;42435;53.292;6.000;2023-11-22T02:08:11;6.30;84.50
56538;DHT22;42435;53.292;6.000;2023-11-22T02:10:37;6.30;84.50
56538;DHT22;42435;53.292;6.000;2023-11-22T02:13:05;6.30;84.50
56538;DHT22;42435;53.292;6.000;2023-11-22T02:15:34;6.30;84.50
56538;DHT22;42435;53.292;6.000;2023-11-22T02:18:00;6.30;84.50
56538;DHT22;42435;53.292;6.000;2023-11-22T02:20:26;6.30;84.40
56538;DHT22;42435;53.292;6.000;2023-11-22T02:22:52;6.30;84.40
56538;DHT22;42435;53.292;6.000;2023-11-22T02:25:20;6.30;84.40
56538;DHT22;42435;53.292;6.000;2023-11-22T02:27:45;6.30;84.30
56538;DHT22;42435;53.292;6.000;2023-11-22T02:30:11;6.30;84.20
56538;DHT22;42435;53.292;6.000;2023-11-22T02:32:37;6.20;84.20
56538;DHT22;42435;53.292;6.000;2023-11-22T02:35:04;6.20;84.10
56538;DHT22;42435;53.292;6.000;2023-11-22T02:37:33;6.20;84.10
56538;DHT22;42435;53.292;6.000;2023-11-22T02:40:16;6.10;84.10
56538;DHT22;42435;53.292;6.000;2023-11-22T02:42:49;6.10;84.10
56538;DHT22;42435;53.292;6.000;2023-11-22T02:45:19;6.00;84.00
56538;DHT22;42435;53.292;6.000;2023-11-22T02:47:45;6.00;84.00
56538;DHT22;42435;53.292;6.000;2023-11-22T02:50:15;5.90;83.90
56538;DHT22;42435;53.292;6.000;2023-11-22T02:52:41;5.90;83.80
56538;DHT22;42435;53.292;6.000;2023-11-22T02:55:07;5.90;83.70
56538;DHT22;42435;53.292;6.000;2023-11-22T02:57:35;5.80;83.80
56538;DHT22;42435;53.292;6.000;2023-11-22T03:00:02;5.70;83.80
56538;DHT22;42435;53.292;6.000;2023-11-22T03:02:30;5.70;83.90
56538;DHT22;42435;53.292;6.000;2023-11-22T03:04:57;5.60;84.00
56538;DHT22;42435;53.292;6.000;2023-11-22T03:07:26;5.60;84.00
56538;DHT22;42435;53.292;6.000;2023-11-22T03:09:53;5.60;84.00
56538;DHT22;42435;53.292;6.000;2023-11-22T03:12:19;5.50;84.00
56538;DHT22;42435;53.292;6.000;2023-11-22T03:14:48;5.40;84.00
56538;DHT22;42435;53.292;6.000;2023-11-22T03:17:17;5.40;83.90
56538;DHT22;42435;53.292;6.000;2023-11-22T03:19:43;5.30;83.90
56538;DHT22;42435;53.292;6.000;2023-11-22T03:22:10;5.30;84.00
56538;DHT22;42435;53.292;6.000;2023-11-22T03:24:36;5.20;84.00
56538;DHT22;42435;53.292;6.000;2023-11-22T03:27:04;5.10;84.00
56538;DHT22;42435;53.292;6.000;2023-11-22T03:29:31;5.10;84.00
56538;DHT22;42435;53.292;6.000;2023-11-22T03:31:58;5.00;84.10
56538;DHT22;42435;53.292;6.000;2023-11-22T03:34:23;5.00;84.20
56538;DHT22;42435;53.292;6.000;2023-11-22T03:36:49;5.00;84.20
56538;DHT22;42435;53.292;6.000;2023-11-22T03:39:15;4.90;84.30
56538;DHT22;42435;53.292;6.000;2023-11-22T03:41:42;4.90;84.30
56538;DHT22;42435;53.292;6.000;2023-11-22T03:44:08;4.80;84.30
56538;DHT22;42435;53.292;6.000;2023-11-22T03:46:35;4.70;84.40
56538;DHT22;42435;53.292;6.000;2023-11-22T03:49:05;4.70;84.50
56538;DHT22;42435;53.292;6.000;2023-11-22T03:51:36;4.60;84.60
56538;DHT22;42435;53.292;6.000;2023-11-22T03:54:02;4.70;84.70
56538;DHT22;42435;53.292;6.000;2023-11-22T03:56:29;4.60;84.80
56538;DHT22;42435;53.292;6.000;2023-11-22T03:58:55;4.60;84.80
56538;DHT22;42435;53.292;6.000;2023-11-22T04:01:21;4.50;84.90
56538;DHT22;42435;53.292;6.000;2023-11-22T04:03:48;4.50;84.90
56538;DHT22;42435;53.292;6.000;2023-11-22T04:06:15;4.50;85.00
56538;DHT22;42435;53.292;6.000;2023-11-22T04:08:46;4.50;85.10
56538;DHT22;42435;53.292;6.000;2023-11-22T04:11:15;4.50;85.10
56538;DHT22;42435;53.292;6.000;2023-11-22T04:13:42;4.60;85.20
56538;DHT22;42435;53.292;6.000;2023-11-22T04:16:08;4.50;85.10
56538;DHT22;42435;53.292;6.000;2023-11-22T04:18:38;4.60;85.10
56538;DHT22;42435;53.292;6.000;2023-11-22T04:21:04;4.60;85.10
56538;DHT22;42435;53.292;6.000;2023-11-22T04:23:31;4.60;85.00
56538;DHT22;42435;53.292;6.000;2023-11-22T04:25:58;4.60;85.00
56538;DHT22;42435;53.292;6.000;2023-11-22T04:28:27;4.60;85.00
56538;DHT22;42435;53.292;6.000;2023-11-22T04:30:53;4.50;84.90
56538;DHT22;42435;53.292;6.000;2023-11-22T04:33:20;4.60;84.90
56538;DHT22;42435;53.292;6.000;2023-11-22T04:35:48;4.60;84.90
56538;DHT22;42435;53.292;6.000;2023-11-22T04:38:14;4.60;84.90
56538;DHT22;42435;53.292;6.000;2023-11-22T04:40:39;4.60;84.90
56538;DHT22;42435;53.292;6.000;2023-11-22T04:43:05;4.60;84.90
56538;DHT22;42435;53.292;6.000;2023-11-22T04:45:30;4.60;84.90
56538;DHT22;42435;53.292;6.000;2023-11-22T04:47:56;4.60;84.90
56538;DHT22;42435;53.292;6.000;2023-11-22T04:50:23;4.60;84.90
56538;DHT22;42435;53.292;6.000;2023-11-22T04:52:50;4.60;84.80
56538;DHT22;42435;53.292;6.000;2023-11-22T04:55:17;4.60;84.90
56538;DHT22;42435;53.292;6.000;2023-11-22T04:57:43;4.60;84.90
56538;DHT22;42435;53.292;6.000;2023-11-22T05:00:09;4.70;84.90
56538;DHT22;42435;53.292;6.000;2023-11-22T05:02:35;4.70;84.90
56538;DHT22;42435;53.292;6.000;2023-11-22T05:05:01;4.70;84.80
56538;DHT22;42435;53.292;6.000;2023-11-22T05:07:26;4.70;84.80
56538;DHT22;42435;53.292;6.000;2023-11-22T05:09:52;4.70;84.80
56538;DHT22;42435;53.292;6.000;2023-11-22T05:12:18;4.70;84.80
56538;DHT22;42435;53.292;6.000;2023-11-22T05:14:44;4.70;84.80
56538;DHT22;42435;53.292;6.000;2023-11-22T05:17:11;4.80;84.70
56538;DHT22;42435;53.292;6.000;2023-11-22T05:19:38;4.70;84.60
56538;DHT22;42435;53.292;6.000;2023-11-22T05:22:06;4.80;84.60
56538;DHT22;42435;53.292;6.000;2023-11-22T05:24:33;4.80;84.50
56538;DHT22;42435;53.292;6.000;2023-11-22T05:27:00;4.80;84.50
56538;DHT22;42435;53.292;6.000;2023-11-22T05:29:26;4.70;84.40
56538;DHT22;42435;53.292;6.000;2023-11-22T05:31:52;4.70;84.40
56538;DHT22;42435;53.292;6.000;2023-11-22T05:34:18;4.70;84.40
56538;DHT22;42435;53.292;6.000;2023-11-22T05:36:44;4.70;84.40
56538;DHT22;42435;53.292;6.000;2023-11-22T05:39:09;4.70;84.40
56538;DHT22;42435;53.292;6.000;2023-11-22T05:41:35;4.70;84.30
56538;DHT22;42435;53.292;6.000;2023-11-22T05:44:01;4.70;84.30
56538;DHT22;42435;53.292;6.000;2023-11-22T05:46:28;4.70;84.20
56538;DHT22;42435;53.292;6.000;2023-11-22T05:48:54;4.70;84.20
56538;DHT22;42435;53.292;6.000;2023-11-22T05:51:20;4.60;84.20
56538;DHT22;42435;53.292;6.000;2023-11-22T05:53:46;4.60;84.10
56538;DHT22;42435;53.292;6.000;2023-11-22T05:56:11;4.70;84.10
56538;DHT22;42435;53.292;6.000;2023-11-22T05:58:38;4.60;84.10
56538;DHT22;42435;53.292;6.000;2023-11-22T06:01:05;4.60;84.00
56538;DHT22;42435;53.292;6.000;2023-11-22T06:03:31;4.60;84.00
56538;DHT22;42435;53.292;6.000;2023-11-22T06:05:57;4.60;84.00
56538;DHT22;42435;53.292;6.000;2023-11-22T06:08:23;4.60;84.00
56538;DHT22;42435;53.292;6.000;2023-11-22T06:10:48;4.60;84.00
56538;DHT22;42435;53.292;6.000;2023-11-22T06:13:20;4.60;84.00
56538;DHT22;42435;53.292;6.000;2023-11-22T06:15:46;4.50;84.10
56538;DHT22;42435;53.292;6.000;2023-11-22T06:18:11;4.60;84.10
56538;DHT22;42435;53.292;6.000;2023-11-22T06:20:39;4.60;84.20
56538;DHT22;42435;53.292;6.000;2023-11-22T06:23:05;4.60;84.20
56538;DHT22;42435;53.292;6.000;2023-11-22T06:25:31;4.60;84.20
56538;DHT22;42435;53.292;6.000;2023-11-22T06:27:56;4.60;84.20
56538;DHT22;42435;53.292;6.000;2023-11-22T06:30:22;4.60;84.20
56538;DHT22;42435;53.292;6.000;2023-11-22T06:32:50;4.60;84.20
56538;DHT22;42435;53.292;6.000;2023-11-22T06:35:16;4.50;84.10
56538;DHT22;42435;53.292;6.000;2023-11-22T06:37:43;4.50;84.10
56538;DHT22;42435;53.292;6.000;2023-11-22T06:40:10;4.50;84.10
56538;DHT22;42435;53.292;6.000;2023-11-22T06:42:38;4.50;84.20
56538;DHT22;42435;53.292;6.000;2023-11-22T06:45:05;4.50;84.10
56538;DHT22;42435;53.292;6.000;2023-11-22T06:47:44;4.50;84.10
56538;DHT22;42435;53.292;6.000;2023-11-22T06:50:11;4.40;84.10
56538;DHT22;42435;53.292;6.000;2023-11-22T06:52:38;4.40;84.00
56538;DHT22;42435;53.292;6.000;2023-11-22T06:55:10;4.40;84.00
56538;DHT22;42435;53.292;6.000;2023-11-22T06:57:37;4.40;84.00
56538;DHT22;42435;53.292;6.000;2023-11-22T07:00:03;4.40;84.00
56538;DHT22;42435;53.292;6.000;2023-11-22T07:02:33;4.40;83.90
56538;DHT22;42435;53.292;6.000;2023-11-22T07:05:01;4.40;83.90
56538;DHT22;42435;53.292;6.000;2023-11-22T07:07:29;4.30;83.90
56538;DHT22;42435;53.292;6.000;2023-11-22T07:09:55;4.30;84.00
56538;DHT22;42435;53.292;6.000;2023-11-22T07:12:27;4.30;84.00
56538;DHT22;42435;53.292;6.000;2023-11-22T07:14:54;4.30;84.00
56538;DHT22;42435;53.292;6.000;2023-11-22T07:17:20;4.30;84.00
56538;DHT22;42435;53.292;6.000;2023-11-22T07:19:47;4.30;84.00
56538;DHT22;42435;53.292;6.000;2023-11-22T07:22:14;4.20;84.10
56538;DHT22;42435;53.292;6.000;2023-11-22T07:24:44;4.30;84.10
56538;DHT22;42435;53.292;6.000;2023-11-22T07:27:14;4.30;84.10
56538;DHT22;42435;53.292;6.000;2023-11-22T07:29:43;4.30;84.20
56538;DHT22;42435;53.292;6.000;2023-11-22T07:32:10;4.30;84.10
56538;DHT22;42435;53.292;6.000;2023-11-22T07:34:36;4.30;84.20
56538;DHT22;42435;53.292;6.000;2023-11-22T07:37:02;4.30;84.20
56538;DHT22;42435;53.292;6.000;2023-11-22T07:39:28;4.30;84.20
56538;DHT22;42435;53.292;6.000;2023-11-22T07:41:57;4.40;84.20
56538;DHT22;42435;53.292;6.000;2023-11-22T07:44:27;4.40;84.20
56538;DHT22;42435;53.292;6.000;2023-11-22T07:46:53;4.40;84.30
56538;DHT22;42435;53.292;6.000;2023-11-22T07:49:20;4.40;84.30
56538;DHT22;42435;53.292;6.000;2023-11-22T07:51:47;4.50;84.30
56538;DHT22;42435;53.292;6.000;2023-11-22T07:54:14;4.50;84.30
56538;DHT22;42435;53.292;6.000;2023-11-22T07:56:41;4.50;84.30
56538;DHT22;42435;53.292;6.000;2023-11-22T07:59:09;4.50;84.30
56538;DHT22;42435;53.292;6.000;2023-11-22T08:01:36;4.60;84.20
56538;DHT22;42435;53.292;6.000;2023-11-22T08:04:02;4.60;84.30
56538;DHT22;42435;53.292;6.000;2023-11-22T08:06:28;4.60;84.30
56538;DHT22;42435;53.292;6.000;2023-11-22T08:08:53;4.70;84.30
56538;DHT22;42435;53.292;6.000;2023-11-22T08:11:19;4.70;84.20
56538;DHT22;42435;53.292;6.000;2023-11-22T08:13:45;4.70;84.30
56538;DHT22;42435;53.292;6.000;2023-11-22T08:16:11;4.70;84.30
56538;DHT22;42435;53.292;6.000;2023-11-22T08:18:42;4.80;84.30
56538;DHT22;42435;53.292;6.000;2023-11-22T08:21:09;4.90;84.20
56538;DHT22;42435;53.292;6.000;2023-11-22T08:23:35;4.90;84.20
56538;DHT22;42435;53.292;6.000;2023-11-22T08:26:01;4.90;84.20
56538;DHT22;42435;53.292;6.000;2023-11-22T08:28:27;4.90;84.20
56538;DHT22;42435;53.292;6.000;2023-11-22T08:30:52;5.00;84.20
56538;DHT22;42435;53.292;6.000;2023-11-22T08:33:19;5.00;84.10
56538;DHT22;42435;53.292;6.000;2023-11-22T08:35:44;5.00;84.00
56538;DHT22;42435;53.292;6.000;2023-11-22T08:38:18;5.00;83.90
56538;DHT22;42435;53.292;6.000;2023-11-22T08:40:44;5.00;83.80
56538;DHT22;42435;53.292;6.000;2023-11-22T08:43:10;5.10;83.80
56538;DHT22;42435;53.292;6.000;2023-11-22T08:45:40;5.10;83.70
56538;DHT22;42435;53.292;6.000;2023-11-22T08:48:06;5.10;83.70
56538;DHT22;42435;53.292;6.000;2023-11-22T08:50:32;5.10;83.80
56538;DHT22;42435;53.292;6.000;2023-11-22T08:52:57;5.10;83.80
56538;DHT22;42435;53.292;6.000;2023-11-22T08:55:23;5.20;83.70
56538;DHT22;42435;53.292;6.000;2023-11-22T08:57:50;5.10;83.70
56538;DHT22;42435;53.292;6.000;2023-11-22T09:00:17;5.20;83.60
56538;DHT22;42435;53.292;6.000;2023-11-22T09:02:51;5.20;83.60
56538;DHT22;42435;53.292;6.000;2023-11-22T09:05:17;5.20;83.50
56538;DHT22;42435;53.292;6.000;2023-11-22T09:07:44;5.20;83.60
56538;DHT22;42435;53.292;6.000;2023-11-22T09:10:10;5.20;83.60
56538;DHT22;42435;53.292;6.000;2023-11-22T09:12:39;5.30;83.60
56538;DHT22;42435;53.292;6.000;2023-11-22T09:15:12;5.30;83.60
56538;DHT22;42435;53.292;6.000;2023-11-22T09:17:52;5.30;83.60
56538;DHT22;42435;53.292;6.000;2023-11-22T09:20:19;5.30;83.50
56538;DHT22;42435;53.292;6.000;2023-11-22T09:22:52;5.30;83.50
56538;DHT22;42435;53.292;6.000;2023-11-22T09:25:20;5.30;83.50
56538;DHT22;42435;53.292;6.000;2023-11-22T09:27:47;5.30;83.50
56538;DHT22;42435;53.292;6.000;2023-11-22T09:30:15;5.40;83.50
56538;DHT22;42435;53.292;6.000;2023-11-22T09:33:01;5.40;83.50
56538;DHT22;42435;53.292;6.000;2023-11-22T09:35:27;5.40;83.50
56538;DHT22;42435;53.292;6.000;2023-11-22T09:37:55;5.40;83.50
56538;DHT22;42435;53.292;6.000;2023-11-22T09:40:28;5.50;83.50
56538;DHT22;42435;53.292;6.000;2023-11-22T09:42:55;5.50;83.50
56538;DHT22;42435;53.292;6.000;2023-11-22T09:45:23;5.50;83.50
56538;DHT22;42435;53.292;6.000;2023-11-22T09:47:50;5.60;83.50
56538;DHT22;42435;53.292;6.000;2023-11-22T09:50:30;5.60;83.50
56538;DHT22;42435;53.292;6.000;2023-11-22T09:53:00;5.60;83.50
56538;DHT22;42435;53.292;6.000;2023-11-22T09:55:30;5.60;83.50
56538;DHT22;42435;53.292;6.000;2023-11-22T09:57:59;5.70;83.50
56538;DHT22;42435;53.292;6.000;2023-11-22T10:00:28;5.70;83.50
56538;DHT22;42435;53.292;6.000;2023-11-22T10:02:56;5.70;83.40
56538;DHT22;42435;53.292;6.000;2023-11-22T10:05:23;5.70;83.40
56538;DHT22;42435;53.292;6.000;2023-11-22T10:07:49;5.80;83.40
56538;DHT22;42435;53.292;6.000;2023-11-22T10:10:15;5.80;83.30
56538;DHT22;42435;53.292;6.000;2023-11-22T10:12:44;5.80;83.40
56538;DHT22;42435;53.292;6.000;2023-11-22T10:15:16;5.90;83.40
56538;DHT22;42435;53.292;6.000;2023-11-22T10:17:58;5.90;83.40
56538;DHT22;42435;53.292;6.000;2023-11-22T10:20:42;6.00;83.20
56538;DHT22;42435;53.292;6.000;2023-11-22T10:23:21;5.90;83.10
56538;DHT22;42435;53.292;6.000;2023-11-22T10:25:54;6.00;83.20
56538;DHT22;42435;53.292;6.000;2023-11-22T10:28:29;6.00;83.20
56538;DHT22;42435;53.292;6.000;2023-11-22T10:30:55;6.10;83.20
56538;DHT22;42435;53.292;6.000;2023-11-22T10:33:21;6.20;83.20
56538;DHT22;42435;53.292;6.000;2023-11-22T10:35:51;6.30;83.10
56538;DHT22;42435;53.292;6.000;2023-11-22T10:38:18;6.40;83.10
56538;DHT22;42435;53.292;6.000;2023-11-22T10:40:45;6.50;83.00
56538;DHT22;42435;53.292;6.000;2023-11-22T10:43:17;6.60;82.90
56538;DHT22;42435;53.292;6.000;2023-11-22T10:45:47;6.60;82.60
56538;DHT22;42435;53.292;6.000;2023-11-22T10:48:18;6.60;82.30
56538;DHT22;42435;53.292;6.000;2023-11-22T10:50:47;6.70;82.00
56538;DHT22;42435;53.292;6.000;2023-11-22T10:53:21;6.70;81.80
56538;DHT22;42435;53.292;6.000;2023-11-22T10:56:17;6.80;81.60
56538;DHT22;42435;53.292;6.000;2023-11-22T10:58:52;6.80;81.30
56538;DHT22;42435;53.292;6.000;2023-11-22T11:01:25;6.80;81.10
56538;DHT22;42435;53.292;6.000;2023-11-22T11:04:02;6.80;81.10
56538;DHT22;42435;53.292;6.000;2023-11-22T11:06:34;6.80;80.90
56538;DHT22;42435;53.292;6.000;2023-11-22T11:09:09;6.90;81.00
56538;DHT22;42435;53.292;6.000;2023-11-22T11:11:37;6.90;80.80
56538;DHT22;42435;53.292;6.000;2023-11-22T11:14:04;7.00;80.70
56538;DHT22;42435;53.292;6.000;2023-11-22T11:16:32;7.00;80.40
56538;DHT22;42435;53.292;6.000;2023-11-22T11:19:00;7.00;80.10
56538;DHT22;42435;53.292;6.000;2023-11-22T11:21:26;7.00;80.00
56538;DHT22;42435;53.292;6.000;2023-11-22T11:23:52;7.10;79.80
56538;DHT22;42435;53.292;6.000;2023-11-22T11:26:20;7.10;79.80
56538;DHT22;42435;53.292;6.000;2023-11-22T11:28:51;7.20;79.70
56538;DHT22;42435;53.292;6.000;2023-11-22T11:31:20;7.20;79.40
56538;DHT22;42435;53.292;6.000;2023-11-22T11:38:53;7.30;78.80
56538;DHT22;42435;53.292;6.000;2023-11-22T11:41:27;7.30;78.80
56538;DHT22;42435;53.292;6.000;2023-11-22T11:43:56;7.40;78.50
56538;DHT22;42435;53.292;6.000;2023-11-22T11:46:23;7.40;78.50
56538;DHT22;42435;53.292;6.000;2023-11-22T11:48:50;7.40;78.50
56538;DHT22;42435;53.292;6.000;2023-11-22T11:51:18;7.50;78.40
56538;DHT22;42435;53.292;6.000;2023-11-22T11:53:47;7.50;78.20
56538;DHT22;42435;53.292;6.000;2023-11-22T11:56:13;7.50;78.00
56538;DHT22;42435;53.292;6.000;2023-11-22T11:58:43;7.60;77.90
56538;DHT22;42435;53.292;6.000;2023-11-22T12:01:11;7.50;77.60
56538;DHT22;42435;53.292;6.000;2023-11-22T12:03:37;7.50;77.50
56538;DHT22;42435;53.292;6.000;2023-11-22T12:06:05;7.50;77.50
56538;DHT22;42435;53.292;6.000;2023-11-22T12:08:31;7.50;77.40
56538;DHT22;42435;53.292;6.000;2023-11-22T12:11:02;7.40;77.40
56538;DHT22;42435;53.292;6.000;2023-11-22T12:13:30;7.40;77.40
56538;DHT22;42435;53.292;6.000;2023-11-22T12:15:57;7.40;77.40
56538;DHT22;42435;53.292;6.000;2023-11-22T12:18:23;7.30;77.40
56538;DHT22;42435;53.292;6.000;2023-11-22T12:20:59;7.30;77.40
56538;DHT22;42435;53.292;6.000;2023-11-22T12:23:26;7.20;77.40
56538;DHT22;42435;53.292;6.000;2023-11-22T12:26:01;7.20;77.50
56538;DHT22;42435;53.292;6.000;2023-11-22T12:28:28;7.10;77.50
56538;DHT22;42435;53.292;6.000;2023-11-22T12:30:54;7.10;77.60
56538;DHT22;42435;53.292;6.000;2023-11-22T12:33:20;7.00;77.80
56538;DHT22;42435;53.292;6.000;2023-11-22T12:35:47;7.00;77.90
56538;DHT22;42435;53.292;6.000;2023-11-22T12:38:14;7.00;78.00
56538;DHT22;42435;53.292;6.000;2023-11-22T12:40:46;7.00;78.20
56538;DHT22;42435;53.292;6.000;2023-11-22T12:43:17;6.90;78.40
56538;DHT22;42435;53.292;6.000;2023-11-22T12:45:42;6.90;78.50
56538;DHT22;42435;53.292;6.000;2023-11-22T12:48:24;6.90;78.70
56538;DHT22;42435;53.292;6.000;2023-11-22T12:50:53;6.90;78.90
56538;DHT22;42435;53.292;6.000;2023-11-22T12:53:19;6.90;79.00
56538;DHT22;42435;53.292;6.000;2023-11-22T12:55:52;6.90;79.10
56538;DHT22;42435;53.292;6.000;2023-11-22T12:58:19;6.90;79.30
56538;DHT22;42435;53.292;6.000;2023-11-22T13:00:47;6.90;79.30
56538;DHT22;42435;53.292;6.000;2023-11-22T13:03:14;6.80;79.50
56538;DHT22;42435;53.292;6.000;2023-11-22T13:05:41;6.80;79.60
56538;DHT22;42435;53.292;6.000;2023-11-22T13:08:11;6.70;79.80
56538;DHT22;42435;53.292;6.000;2023-11-22T13:10:39;6.70;80.00
56538;DHT22;42435;53.292;6.000;2023-11-22T13:13:05;6.70;80.10
56538;DHT22;42435;53.292;6.000;2023-11-22T13:15:35;6.70;80.30
56538;DHT22;42435;53.292;6.000;2023-11-22T13:18:01;6.70;80.40
56538;DHT22;42435;53.292;6.000;2023-11-22T13:20:27;6.70;80.40
56538;DHT22;42435;53.292;6.000;2023-11-22T13:22:54;6.70;80.60
56538;DHT22;42435;53.292;6.000;2023-11-22T13:25:23;6.70;80.70
56538;DHT22;42435;53.292;6.000;2023-11-22T13:27:52;6.70;80.80
56538;DHT22;42435;53.292;6.000;2023-11-22T13:30:22;6.70;80.80
56538;DHT22;42435;53.292;6.000;2023-11-22T13:32:52;6.70;80.90
56538;DHT22;42435;53.292;6.000;2023-11-22T13:35:19;6.70;81.10
56538;DHT22;42435;53.292;6.000;2023-11-22T13:37:48;6.70;81.10
56538;DHT22;42435;53.292;6.000;2023-11-22T13:40:18;6.70;81.10
56538;DHT22;42435;53.292;6.000;2023-11-22T13:42:48;6.70;81.20
56538;DHT22;42435;53.292;6.000;2023-11-22T13:45:19;6.70;81.20
56538;DHT22;42435;53.292;6.000;2023-11-22T13:47:53;6.70;81.30
56538;DHT22;42435;53.292;6.000;2023-11-22T13:50:23;6.70;81.50
56538;DHT22;42435;53.292;6.000;2023-11-22T13:52:53;6.70;81.50
56538;DHT22;42435;53.292;6.000;2023-11-22T13:55:19;6.70;81.50
56538;DHT22;42435;53.292;6.000;2023-11-22T13:57:52;6.70;81.60
56538;DHT22;42435;53.292;6.000;2023-11-22T14:00:20;6.70;81.60
56538;DHT22;42435;53.292;6.000;2023-11-22T14:02:56;6.70;81.60
56538;DHT22;42435;53.292;6.000;2023-11-22T14:05:22;6.70;81.70
56538;DHT22;42435;53.292;6.000;2023-11-22T14:07:48;6.70;81.70
56538;DHT22;42435;53.292;6.000;2023-11-22T14:10:18;6.70;81.70
56538;DHT22;42435;53.292;6.000;2023-11-22T14:12:44;6.70;81.70
56538;DHT22;42435;53.292;6.000;2023-11-22T14:15:14;6.70;81.70
56538;DHT22;42435;53.292;6.000;2023-11-22T14:17:41;6.80;81.70
56538;DHT22;42435;53.292;6.000;2023-11-22T14:20:12;6.70;81.70
56538;DHT22;42435;53.292;6.000;2023-11-22T14:22:39;6.70;81.60
56538;DHT22;42435;53.292;6.000;2023-11-22T14:25:09;6.70;81.60
56538;DHT22;42435;53.292;6.000;2023-11-22T14:27:39;6.70;81.60
56538;DHT22;42435;53.292;6.000;2023-11-22T14:30:06;6.70;81.60
56538;DHT22;42435;53.292;6.000;2023-11-22T14:32:34;6.70;81.60
56538;DHT22;42435;53.292;6.000;2023-11-22T14:35:03;6.70;81.60
56538;DHT22;42435;53.292;6.000;2023-11-22T14:37:29;6.70;81.70
56538;DHT22;42435;53.292;6.000;2023-11-22T14:39:56;6.70;81.70
56538;DHT22;42435;53.292;6.000;2023-11-22T14:42:23;6.70;81.80
56538;DHT22;42435;53.292;6.000;2023-11-22T14:44:53;6.70;81.80
56538;DHT22;42435;53.292;6.000;2023-11-22T14:47:20;6.80;81.80
56538;DHT22;42435;53.292;6.000;2023-11-22T14:49:51;6.70;81.80
56538;DHT22;42435;53.292;6.000;2023-11-22T14:52:18;6.70;81.90
56538;DHT22;42435;53.292;6.000;2023-11-22T14:54:48;6.70;81.80
56538;DHT22;42435;53.292;6.000;2023-11-22T14:57:17;6.70;81.90
56538;DHT22;42435;53.292;6.000;2023-11-22T14:59:43;6.70;81.90
56538;DHT22;42435;53.292;6.000;2023-11-22T15:02:10;6.70;82.00
56538;DHT22;42435;53.292;6.000;2023-11-22T15:04:39;6.70;82.00
56538;DHT22;42435;53.292;6.000;2023-11-22T15:07:12;6.70;82.10
56538;DHT22;42435;53.292;6.000;2023-11-22T15:09:37;6.60;82.10
56538;DHT22;42435;53.292;6.000;2023-11-22T15:12:04;6.60;82.00
56538;DHT22;42435;53.292;6.000;2023-11-22T15:14:33;6.60;82.10
56538;DHT22;42435;53.292;6.000;2023-11-22T15:16:59;6.60;82.20
56538;DHT22;42435;53.292;6.000;2023-11-22T15:19:30;6.60;82.30
56538;DHT22;42435;53.292;6.000;2023-11-22T15:21:56;6.60;82.30
56538;DHT22;42435;53.292;6.000;2023-11-22T15:24:22;6.60;82.40
56538;DHT22;42435;53.292;6.000;2023-11-22T15:26:48;6.60;82.50
56538;DHT22;42435;53.292;6.000;2023-11-22T15:29:14;6.60;82.50
56538;DHT22;42435;53.292;6.000;2023-11-22T15:31:42;6.70;82.60
56538;DHT22;42435;53.292;6.000;2023-11-22T15:34:09;6.60;82.60
56538;DHT22;42435;53.292;6.000;2023-11-22T15:36:34;6.60;82.60
56538;DHT22;42435;53.292;6.000;2023-11-22T15:39:01;6.60;82.70
56538;DHT22;42435;53.292;6.000;2023-11-22T15:41:27;6.60;82.80
56538;DHT22;42435;53.292;6.000;2023-11-22T15:43:53;6.60;82.90
56538;DHT22;42435;53.292;6.000;2023-11-22T15:46:19;6.70;82.90
56538;DHT22;42435;53.292;6.000;2023-11-22T15:48:52;6.70;83.00
56538;DHT22;42435;53.292;6.000;2023-11-22T15:51:18;6.70;83.00
56538;DHT22;42435;53.292;6.000;2023-11-22T15:53:43;6.70;83.00